Flight Track Log - Related Links

Times and Time Zones

All times are in EDT time to prevent confusion due to time zone crossing. See the EGF4090 flight status page for this flight to view local times or setup timezone preferences in your user account.


Time Position Orientation Groundspeed Altitude Reporting Facility
EDT Latitude Longitude Course Direction KTS MPH feet Rate Location/Type
Sun 11:11:29 PM 42.0167 -87.9000 194° South 230 265 2,800  Level Chicago TRACON
Sun 11:12:00 PM 41.7885 -88.0352 191° South  Level Estimated
Sun 11:12:29 PM 41.9500 -87.8833 169° South 264 304 4,500  Level Chicago TRACON
Sun 11:13:00 PM 41.6919 -88.0991 192° South  Level Estimated
Sun 11:13:29 PM 41.8833 -87.8833 180° South 252 290 5,300  Level Chicago TRACON
Sun 11:14:00 PM 41.5953 -88.1629 189° South  Level Estimated
Sun 11:14:16 PM 41.8303 -87.9014 194° South 252 290 7,100  Level Chicago Center
Sun 11:15:00 PM 41.5034 -88.0876 148° Southeast  Level FlightAware Approximate
Sun 11:15:17 PM 41.7581 -87.9244 193° South 266 306 9,100  Level Chicago Center
Sun 11:16:00 PM 41.4074 -88.1527 194° South  Level Estimated
Sun 11:16:18 PM 41.6814 -87.9475 193° South 281 323 11,000  Level Chicago Center
Sun 11:17:19 PM 41.5994 -87.9722 193° South 299 344 12,800 1,438 Climbing Chicago Center
Sun 11:18:19 PM 41.5114 -87.9989 193° South 319 367 13,900 1,190 Climbing Chicago Center
Sun 11:19:20 PM 41.4014 -88.0331 193° South 350 403 15,200 1,180 Climbing Chicago Center
Sun 11:20:21 PM 41.3103 -88.0628 194° South 357 411 16,300 1,033 Climbing Chicago Center
Sun 11:21:22 PM 41.2108 -88.0961 194° South 364 419 17,300 934 Climbing Chicago Center
Sun 11:22:23 PM 41.1072 -88.1253 192° South 378 435 18,200 934 Climbing Chicago Center
Sun 11:23:24 PM 41.0050 -88.1703 198° South 392 451 19,200 992 Climbing Chicago Center
Sun 11:24:24 PM 40.9081 -88.2417 209° Southwest 400 460 20,200 992 Climbing Chicago Center
Sun 11:25:25 PM 40.8072 -88.3133 208° Southwest 410 472 21,200 984 Climbing Chicago Center
Sun 11:26:26 PM 40.7058 -88.3847 208° Southwest 413 475 22,200 1,033 Climbing Chicago Center
Sun 11:27:27 PM 40.5811 -88.4725 208° Southwest 422 486 23,300 1,041 Climbing Chicago Center
Sun 11:28:27 PM 40.4769 -88.5450 208° Southwest 425 489 24,300 992 Climbing Chicago Center
Sun 11:29:28 PM 40.3808 -88.6131 208° Southwest 427 491 25,300 934 Climbing Chicago Center
Sun 11:30:29 PM 40.2744 -88.6872 208° Southwest 430 495 26,200 934 Climbing Chicago Center
Sun 11:31:30 PM 40.1683 -88.7608 208° Southwest 430 495 27,200 1,017 Climbing Chicago Center
Sun 11:32:27 PM 40.0614 -88.8333 207° Southwest 426 490 28,200 1,017 Climbing Kansas City Center
Sun 11:33:28 PM 39.9558 -88.9056 208° Southwest 427 491 29,200 885 Climbing Kansas City Center
Sun 11:34:29 PM 39.8519 -88.9775 208° Southwest 423 487 30,000 689 Climbing Kansas City Center
Sun 11:35:30 PM 39.7442 -89.0525 208° Southwest 433 498 30,600 1,033 Climbing Kansas City Center
Sun 11:36:31 PM 39.6375 -89.1242 207° Southwest 432 497 32,100 1,328 Climbing Kansas City Center
Sun 11:37:32 PM 39.5328 -89.1956 208° Southwest 425 489 33,300 934 Climbing Kansas City Center
Sun 11:38:33 PM 39.4183 -89.2739 208° Southwest 428 493 34,000 347 Climbing Kansas City Center
Sun 11:39:33 PM 39.3081 -89.3469 207° Southwest 439 505 34,000  Level Kansas City Center
Sun 11:40:34 PM 39.1944 -89.4239 208° Southwest 455 524 34,000  Level Kansas City Center
Sun 11:41:35 PM 39.0753 -89.5058 208° Southwest 455 524 34,000  Level Kansas City Center
Sun 11:42:36 PM 38.9644 -89.5794 207° Southwest 451 519 34,000  Level Kansas City Center
Sun 11:43:37 PM 38.8528 -89.6533 207° Southwest 451 519 34,000  Level Kansas City Center
Sun 11:44:37 PM 38.7467 -89.7228 207° Southwest 453 521 34,000  Level Kansas City Center
Sun 11:45:38 PM 38.6353 -89.7961 207° Southwest 449 517 34,000  Level Kansas City Center
Sun 11:46:39 PM 38.5247 -89.8692 207° Southwest 446 513 34,000  Level Kansas City Center
Sun 11:47:40 PM 38.4103 -89.9431 207° Southwest 452 520 34,000  Level Kansas City Center
Sun 11:48:40 PM 38.2958 -90.0181 207° Southwest 457 526 34,000  Level Kansas City Center
Sun 11:49:41 PM 38.1814 -90.0919 207° Southwest 458 527 34,000  Level Kansas City Center
Sun 11:50:42 PM 38.0675 -90.1661 207° Southwest 459 528 34,000  Level Kansas City Center
Sun 11:51:42 PM 37.9519 -90.2397 207° Southwest 462 532 34,000  Level Kansas City Center
Sun 11:52:43 PM 37.8372 -90.3147 207° Southwest 462 532 34,000  Level Kansas City Center
Sun 11:53:44 PM 37.7217 -90.3906 207° Southwest 466 536 34,000  Level Kansas City Center
Sun 11:54:45 PM 37.6061 -90.4633 207° Southwest 466 536 34,000  Level Kansas City Center
Sun 11:55:45 PM 37.4903 -90.5375 207° Southwest 467 537 34,000  Level Kansas City Center
Sun 11:56:46 PM 37.3517 -90.6256 207° Southwest 466 536 34,000  Level Kansas City Center
Sun 11:57:47 PM 37.2383 -90.6986 207° Southwest 465 535 34,000  Level Kansas City Center
Sun 11:58:44 PM 37.1208 -90.7731 207° Southwest 467 537 34,000  Level Memphis Center
Sun 11:59:44 PM 37.0061 -90.8478 207° Southwest 467 537 34,000  Level Memphis Center
Mon 12:00:44 AM 36.8889 -90.9197 206° Southwest 472 543 34,000 -400 Level Memphis Center
Mon 12:01:44 AM 36.7803 -90.9889 207° Southwest 465 535 33,200 -1,250 Descending Memphis Center
Mon 12:02:44 AM 36.6675 -91.0581 206° Southwest 455 524 31,500 -1,600 Descending Memphis Center
Mon 12:03:44 AM 36.5650 -91.1217 206° Southwest 450 518 30,000 -1,800 Descending Memphis Center
Mon 12:04:44 AM 36.4394 -91.1978 206° Southwest 463 533 27,900 -2,000 Descending Memphis Center
Mon 12:05:44 AM 36.3222 -91.2689 206° Southwest 468 539 26,000 -1,850 Descending Memphis Center
Mon 12:06:44 AM 36.2047 -91.3394 206° Southwest 473 544 24,200 -1,850 Descending Memphis Center
Mon 12:07:44 AM 36.0939 -91.4075 206° Southwest 461 531 22,300 -1,900 Descending Memphis Center
Mon 12:08:44 AM 35.9869 -91.4728 206° Southwest 454 522 20,400 -1,800 Descending Memphis Center
Mon 12:09:44 AM 35.8944 -91.5331 208° Southwest 438 504 18,700 -1,800 Descending Memphis Center
Mon 12:10:44 AM 35.7897 -91.5931 205° Southwest 424 488 16,800 -1,700 Descending Memphis Center
Mon 12:11:44 AM 35.6931 -91.6531 207° Southwest 410 472 15,300 -1,500 Descending Memphis Center
Mon 12:12:44 AM 35.5944 -91.7128 206° Southwest 400 460 13,800 -1,595 Descending Memphis Center
Mon 12:13:03 AM 35.5525 -91.7375 206° Southwest 385 443 13,200 -1,300 Descending Memphis Center
Mon 12:13:44 AM 35.5000 -91.7700 207° Southwest 394 453 12,500 -1,300 Descending Memphis Center
Mon 12:14:03 AM 35.4644 -91.7922 207° Southwest 370 426 11,900 -1,300 Descending Memphis Center
Mon 12:14:44 AM 35.4119 -91.8219 205° Southwest 376 433 11,200 -1,180 Descending Memphis Center
Mon 12:15:04 AM 35.3742 -91.8442 206° Southwest 336 387 10,700 -1,300 Descending Memphis Center
Mon 12:15:44 AM 35.3278 -91.8636 199° South 347 399 9,900 -1,500 Descending Memphis Center
Mon 12:16:04 AM 35.2944 -91.8808 203° Southwest 310 357 9,200 -1,400 Descending Memphis Center
Mon 12:16:44 AM 35.2503 -91.9031 202° Southwest 324 373 8,500 -1,377 Descending Memphis Center
Mon 12:17:05 AM 35.2144 -91.9200 201° Southwest 291 335 7,800 -1,500 Descending Memphis Center
Mon 12:17:44 AM 35.1747 -91.9397 202° Southwest 312 359 7,000 -1,475 Descending Memphis Center
Mon 12:18:06 AM 35.1411 -91.9594 206° Southwest 277 319 6,300 -1,300 Descending Memphis Center
Mon 12:18:44 AM 35.1053 -91.9764 201° Southwest 289 333 5,700 -1,300 Descending Memphis Center
Mon 12:19:06 AM 35.0719 -91.9911 200° South 269 310 5,000 -1,300 Descending Memphis Center
Mon 12:19:44 AM 35.0339 -92.0106 203° Southwest 283 326 4,400 -1,082 Descending Memphis Center
Mon 12:20:07 AM 34.9983 -92.0278 202° Southwest 276 318 3,900 -1,000 Descending Memphis Center
Mon 12:20:44 AM 34.9625 -92.0447 201° Southwest 278 320 3,400 -885 Descending Memphis Center
Mon 12:21:08 AM 34.9289 -92.0617 202° Southwest 271 312 3,000 -900 Descending Memphis Center
Mon 12:21:44 AM 34.8975 -92.0764 201° Southwest 270 311 2,500 -900 Descending Memphis Center
Mon 12:22:08 AM 34.8617 -92.0958 204° Southwest 249 287 2,100 -500 Descending Memphis Center
Mon 12:22:44 AM 34.8367 -92.1056 198° South 253 291 2,000 -98 Descending Memphis Center
Mon 12:23:09 AM 34.8114 -92.1200 205° Southwest 193 222 2,000 -100 Level Memphis Center
Mon 12:23:44 AM 34.7903 -92.1322 205° Southwest 219 252 1,900 -500 Descending Memphis Center
Mon 12:24:09 AM 34.7714 -92.1522 221° Southwest 146 168 1,500 -800 Descending Memphis Center
Mon 12:24:44 AM 34.7586 -92.1694 228° Southwest 184 212 1,100 -689 Descending Memphis Center
Mon 12:25:10 AM 34.7458 -92.1869 228° Southwest 138 159 800 -100 Descending Memphis Center
Mon 12:25:44 AM 34.7081 -92.2014 197° South 177 204 1,000 353 Climbing Memphis Center

Login

Don't have an account? Register now (free) for customized features, flight alerts, and more!